sensor_id;sensor_type;location;lat;lon;timestamp;P1;durP1;ratioP1;P2;durP2;ratioP2
59169;SDS011;52474;52.236;5.114;2024-02-04T00:01:51;11.30;;;4.78;;
59169;SDS011;52474;52.236;5.114;2024-02-04T00:04:16;14.88;;;4.88;;
59169;SDS011;52474;52.236;5.114;2024-02-04T00:06:42;19.08;;;6.43;;
59169;SDS011;52474;52.236;5.114;2024-02-04T00:09:08;20.25;;;6.22;;
59169;SDS011;52474;52.236;5.114;2024-02-04T00:11:33;18.30;;;6.97;;
59169;SDS011;52474;52.236;5.114;2024-02-04T00:14:00;21.45;;;8.43;;
59169;SDS011;52474;52.236;5.114;2024-02-04T00:16:26;21.60;;;8.18;;
59169;SDS011;52474;52.236;5.114;2024-02-04T00:18:52;24.95;;;9.27;;
59169;SDS011;52474;52.236;5.114;2024-02-04T00:21:18;28.98;;;9.95;;
59169;SDS011;52474;52.236;5.114;2024-02-04T00:23:44;26.15;;;10.02;;
59169;SDS011;52474;52.236;5.114;2024-02-04T00:26:09;28.80;;;10.82;;
59169;SDS011;52474;52.236;5.114;2024-02-04T00:28:35;28.00;;;11.38;;
59169;SDS011;52474;52.236;5.114;2024-02-04T00:31:01;32.90;;;12.57;;
59169;SDS011;52474;52.236;5.114;2024-02-04T00:33:26;33.88;;;13.02;;
59169;SDS011;52474;52.236;5.114;2024-02-04T00:35:52;42.63;;;15.32;;
59169;SDS011;52474;52.236;5.114;2024-02-04T00:38:18;46.13;;;16.10;;
59169;SDS011;52474;52.236;5.114;2024-02-04T00:40:43;42.50;;;14.32;;
59169;SDS011;52474;52.236;5.114;2024-02-04T00:43:09;50.10;;;16.00;;
59169;SDS011;52474;52.236;5.114;2024-02-04T00:45:35;47.97;;;15.48;;
59169;SDS011;52474;52.236;5.114;2024-02-04T00:48:01;60.63;;;16.00;;
59169;SDS011;52474;52.236;5.114;2024-02-04T00:50:27;52.95;;;16.55;;
59169;SDS011;52474;52.236;5.114;2024-02-04T00:52:52;50.53;;;16.25;;
59169;SDS011;52474;52.236;5.114;2024-02-04T00:55:19;45.65;;;14.85;;
59169;SDS011;52474;52.236;5.114;2024-02-04T00:57:45;55.50;;;15.75;;
59169;SDS011;52474;52.236;5.114;2024-02-04T01:00:11;47.15;;;14.52;;
59169;SDS011;52474;52.236;5.114;2024-02-04T01:02:38;64.88;;;16.23;;
59169;SDS011;52474;52.236;5.114;2024-02-04T01:05:04;48.78;;;15.10;;
59169;SDS011;52474;52.236;5.114;2024-02-04T01:07:31;47.60;;;14.60;;
59169;SDS011;52474;52.236;5.114;2024-02-04T01:09:56;53.05;;;14.38;;
59169;SDS011;52474;52.236;5.114;2024-02-04T01:12:22;42.03;;;12.57;;
59169;SDS011;52474;52.236;5.114;2024-02-04T01:14:47;46.15;;;13.85;;
59169;SDS011;52474;52.236;5.114;2024-02-04T01:17:13;45.97;;;12.65;;
59169;SDS011;52474;52.236;5.114;2024-02-04T01:19:39;28.58;;;10.50;;
59169;SDS011;52474;52.236;5.114;2024-02-04T01:22:05;22.60;;;9.98;;
59169;SDS011;52474;52.236;5.114;2024-02-04T01:24:31;27.20;;;8.95;;
59169;SDS011;52474;52.236;5.114;2024-02-04T01:26:57;21.05;;;8.30;;
59169;SDS011;52474;52.236;5.114;2024-02-04T01:29:23;29.63;;;9.40;;
59169;SDS011;52474;52.236;5.114;2024-02-04T01:31:48;21.05;;;9.23;;
59169;SDS011;52474;52.236;5.114;2024-02-04T01:34:14;19.58;;;8.23;;
59169;SDS011;52474;52.236;5.114;2024-02-04T01:36:39;23.40;;;8.02;;
59169;SDS011;52474;52.236;5.114;2024-02-04T01:39:05;22.00;;;6.50;;
59169;SDS011;52474;52.236;5.114;2024-02-04T01:41:32;17.42;;;7.03;;
59169;SDS011;52474;52.236;5.114;2024-02-04T01:43:58;20.60;;;5.82;;
59169;SDS011;52474;52.236;5.114;2024-02-04T01:46:24;15.55;;;5.80;;
59169;SDS011;52474;52.236;5.114;2024-02-04T01:48:50;15.05;;;5.25;;
59169;SDS011;52474;52.236;5.114;2024-02-04T01:51:16;16.60;;;5.25;;
59169;SDS011;52474;52.236;5.114;2024-02-04T01:53:44;16.92;;;5.20;;
59169;SDS011;52474;52.236;5.114;2024-02-04T01:56:11;20.98;;;5.03;;
59169;SDS011;52474;52.236;5.114;2024-02-04T01:58:38;16.58;;;6.03;;
59169;SDS011;52474;52.236;5.114;2024-02-04T02:01:04;14.50;;;5.75;;
59169;SDS011;52474;52.236;5.114;2024-02-04T02:03:33;15.60;;;5.28;;
59169;SDS011;52474;52.236;5.114;2024-02-04T02:06:01;13.95;;;4.57;;
59169;SDS011;52474;52.236;5.114;2024-02-04T02:08:26;13.98;;;5.05;;
59169;SDS011;52474;52.236;5.114;2024-02-04T02:10:56;13.30;;;6.10;;
59169;SDS011;52474;52.236;5.114;2024-02-04T02:13:31;16.10;;;5.10;;
59169;SDS011;52474;52.236;5.114;2024-02-04T02:16:02;15.20;;;5.38;;
59169;SDS011;52474;52.236;5.114;2024-02-04T02:18:42;19.33;;;6.38;;
59169;SDS011;52474;52.236;5.114;2024-02-04T02:26:49;18.23;;;5.68;;
59169;SDS011;52474;52.236;5.114;2024-02-04T02:29:16;12.77;;;5.57;;
59169;SDS011;52474;52.236;5.114;2024-02-04T02:31:42;12.85;;;5.07;;
59169;SDS011;52474;52.236;5.114;2024-02-04T02:34:08;19.83;;;6.03;;
59169;SDS011;52474;52.236;5.114;2024-02-04T02:36:45;14.40;;;5.53;;
59169;SDS011;52474;52.236;5.114;2024-02-04T02:39:24;14.00;;;6.10;;
59169;SDS011;52474;52.236;5.114;2024-02-04T02:41:55;19.15;;;6.20;;
59169;SDS011;52474;52.236;5.114;2024-02-04T02:44:27;21.55;;;7.15;;
59169;SDS011;52474;52.236;5.114;2024-02-04T02:46:57;17.27;;;7.45;;
59169;SDS011;52474;52.236;5.114;2024-02-04T02:49:25;15.50;;;7.53;;
59169;SDS011;52474;52.236;5.114;2024-02-04T02:51:50;19.42;;;6.43;;
59169;SDS011;52474;52.236;5.114;2024-02-04T02:54:16;22.52;;;7.28;;
59169;SDS011;52474;52.236;5.114;2024-02-04T02:56:41;18.42;;;7.00;;
59169;SDS011;52474;52.236;5.114;2024-02-04T02:59:07;18.02;;;6.32;;
59169;SDS011;52474;52.236;5.114;2024-02-04T03:01:33;18.55;;;6.70;;
59169;SDS011;52474;52.236;5.114;2024-02-04T03:03:59;21.45;;;8.20;;
59169;SDS011;52474;52.236;5.114;2024-02-04T03:06:24;22.20;;;8.68;;
59169;SDS011;52474;52.236;5.114;2024-02-04T03:08:50;25.40;;;9.07;;
59169;SDS011;52474;52.236;5.114;2024-02-04T03:11:16;25.30;;;9.27;;
59169;SDS011;52474;52.236;5.114;2024-02-04T03:13:41;27.00;;;10.13;;
59169;SDS011;52474;52.236;5.114;2024-02-04T03:16:13;25.75;;;10.20;;
59169;SDS011;52474;52.236;5.114;2024-02-04T03:18:39;28.92;;;8.93;;
59169;SDS011;52474;52.236;5.114;2024-02-04T03:21:12;30.15;;;9.38;;
59169;SDS011;52474;52.236;5.114;2024-02-04T03:23:39;32.15;;;10.23;;
59169;SDS011;52474;52.236;5.114;2024-02-04T03:26:05;24.70;;;8.73;;
59169;SDS011;52474;52.236;5.114;2024-02-04T03:28:30;23.70;;;8.57;;
59169;SDS011;52474;52.236;5.114;2024-02-04T03:30:56;22.70;;;6.57;;
59169;SDS011;52474;52.236;5.114;2024-02-04T03:33:22;24.67;;;7.18;;
59169;SDS011;52474;52.236;5.114;2024-02-04T03:35:47;17.10;;;6.18;;
59169;SDS011;52474;52.236;5.114;2024-02-04T03:38:13;22.50;;;6.88;;
59169;SDS011;52474;52.236;5.114;2024-02-04T03:40:39;15.80;;;4.63;;
59169;SDS011;52474;52.236;5.114;2024-02-04T03:43:08;14.93;;;4.70;;
59169;SDS011;52474;52.236;5.114;2024-02-04T03:45:37;12.73;;;3.67;;
59169;SDS011;52474;52.236;5.114;2024-02-04T03:48:03;12.43;;;3.50;;
59169;SDS011;52474;52.236;5.114;2024-02-04T03:50:29;15.13;;;4.03;;
59169;SDS011;52474;52.236;5.114;2024-02-04T03:52:55;9.52;;;2.92;;
59169;SDS011;52474;52.236;5.114;2024-02-04T03:55:22;10.68;;;3.53;;
59169;SDS011;52474;52.236;5.114;2024-02-04T03:57:47;10.43;;;2.90;;
59169;SDS011;52474;52.236;5.114;2024-02-04T04:00:13;8.07;;;3.00;;
59169;SDS011;52474;52.236;5.114;2024-02-04T04:02:40;7.45;;;2.90;;
59169;SDS011;52474;52.236;5.114;2024-02-04T04:05:06;16.10;;;3.30;;
59169;SDS011;52474;52.236;5.114;2024-02-04T04:07:35;14.50;;;3.05;;
59169;SDS011;52474;52.236;5.114;2024-02-04T04:10:01;12.27;;;3.00;;
59169;SDS011;52474;52.236;5.114;2024-02-04T04:12:27;9.48;;;2.90;;
59169;SDS011;52474;52.236;5.114;2024-02-04T04:14:52;11.82;;;3.40;;
59169;SDS011;52474;52.236;5.114;2024-02-04T04:17:18;9.80;;;3.40;;
59169;SDS011;52474;52.236;5.114;2024-02-04T04:19:44;11.20;;;3.38;;
59169;SDS011;52474;52.236;5.114;2024-02-04T04:22:09;14.57;;;3.58;;
59169;SDS011;52474;52.236;5.114;2024-02-04T04:24:35;17.02;;;3.97;;
59169;SDS011;52474;52.236;5.114;2024-02-04T04:27:01;15.10;;;4.05;;
59169;SDS011;52474;52.236;5.114;2024-02-04T04:29:26;13.05;;;4.18;;
59169;SDS011;52474;52.236;5.114;2024-02-04T04:31:52;21.20;;;5.35;;
59169;SDS011;52474;52.236;5.114;2024-02-04T04:34:18;14.77;;;4.30;;
59169;SDS011;52474;52.236;5.114;2024-02-04T04:36:45;21.30;;;5.25;;
59169;SDS011;52474;52.236;5.114;2024-02-04T04:39:11;16.20;;;5.38;;
59169;SDS011;52474;52.236;5.114;2024-02-04T04:41:37;19.60;;;5.03;;
59169;SDS011;52474;52.236;5.114;2024-02-04T04:44:02;14.85;;;4.80;;
59169;SDS011;52474;52.236;5.114;2024-02-04T04:46:28;12.95;;;4.88;;
59169;SDS011;52474;52.236;5.114;2024-02-04T04:48:53;19.55;;;5.22;;
59169;SDS011;52474;52.236;5.114;2024-02-04T04:51:23;16.70;;;5.40;;
59169;SDS011;52474;52.236;5.114;2024-02-04T04:53:49;14.60;;;4.97;;
59169;SDS011;52474;52.236;5.114;2024-02-04T04:56:15;14.75;;;4.25;;
59169;SDS011;52474;52.236;5.114;2024-02-04T04:58:41;14.07;;;4.20;;
59169;SDS011;52474;52.236;5.114;2024-02-04T05:01:06;15.93;;;4.10;;
59169;SDS011;52474;52.236;5.114;2024-02-04T05:03:32;14.32;;;4.10;;
59169;SDS011;52474;52.236;5.114;2024-02-04T05:05:58;18.33;;;4.10;;
59169;SDS011;52474;52.236;5.114;2024-02-04T05:08:23;13.40;;;3.92;;
59169;SDS011;52474;52.236;5.114;2024-02-04T05:10:49;15.88;;;3.78;;
59169;SDS011;52474;52.236;5.114;2024-02-04T05:13:14;16.95;;;4.25;;
59169;SDS011;52474;52.236;5.114;2024-02-04T05:15:40;16.20;;;4.00;;
59169;SDS011;52474;52.236;5.114;2024-02-04T05:18:06;17.20;;;4.18;;
59169;SDS011;52474;52.236;5.114;2024-02-04T05:20:31;18.00;;;4.18;;
59169;SDS011;52474;52.236;5.114;2024-02-04T05:22:57;15.63;;;4.95;;
59169;SDS011;52474;52.236;5.114;2024-02-04T05:25:23;13.82;;;4.70;;
59169;SDS011;52474;52.236;5.114;2024-02-04T05:27:50;16.70;;;5.22;;
59169;SDS011;52474;52.236;5.114;2024-02-04T05:30:16;16.95;;;5.75;;
59169;SDS011;52474;52.236;5.114;2024-02-04T05:32:42;18.25;;;5.63;;
59169;SDS011;52474;52.236;5.114;2024-02-04T05:35:09;18.08;;;5.72;;
59169;SDS011;52474;52.236;5.114;2024-02-04T05:37:35;19.38;;;6.25;;
59169;SDS011;52474;52.236;5.114;2024-02-04T05:40:02;21.98;;;7.03;;
59169;SDS011;52474;52.236;5.114;2024-02-04T05:42:29;24.15;;;6.70;;
59169;SDS011;52474;52.236;5.114;2024-02-04T05:44:57;19.73;;;6.70;;
59169;SDS011;52474;52.236;5.114;2024-02-04T05:47:23;18.17;;;6.80;;
59169;SDS011;52474;52.236;5.114;2024-02-04T05:49:49;20.90;;;6.95;;
59169;SDS011;52474;52.236;5.114;2024-02-04T05:52:14;25.85;;;6.80;;
59169;SDS011;52474;52.236;5.114;2024-02-04T05:54:40;17.77;;;5.57;;
59169;SDS011;52474;52.236;5.114;2024-02-04T05:57:06;21.58;;;6.53;;
59169;SDS011;52474;52.236;5.114;2024-02-04T05:59:33;18.75;;;6.18;;
59169;SDS011;52474;52.236;5.114;2024-02-04T06:01:59;18.48;;;5.88;;
59169;SDS011;52474;52.236;5.114;2024-02-04T06:04:25;19.52;;;5.97;;
59169;SDS011;52474;52.236;5.114;2024-02-04T06:06:50;16.08;;;5.72;;
59169;SDS011;52474;52.236;5.114;2024-02-04T06:09:16;13.05;;;5.60;;
59169;SDS011;52474;52.236;5.114;2024-02-04T06:11:45;15.45;;;5.28;;
59169;SDS011;52474;52.236;5.114;2024-02-04T06:14:12;13.05;;;5.05;;
59169;SDS011;52474;52.236;5.114;2024-02-04T06:16:38;15.85;;;5.50;;
59169;SDS011;52474;52.236;5.114;2024-02-04T06:19:03;17.48;;;5.38;;
59169;SDS011;52474;52.236;5.114;2024-02-04T06:21:29;16.50;;;5.63;;
59169;SDS011;52474;52.236;5.114;2024-02-04T06:23:55;19.48;;;6.25;;
59169;SDS011;52474;52.236;5.114;2024-02-04T06:26:21;16.13;;;5.90;;
59169;SDS011;52474;52.236;5.114;2024-02-04T06:28:46;20.58;;;7.20;;
59169;SDS011;52474;52.236;5.114;2024-02-04T06:31:14;19.92;;;6.90;;
59169;SDS011;52474;52.236;5.114;2024-02-04T06:33:40;18.35;;;7.40;;
59169;SDS011;52474;52.236;5.114;2024-02-04T06:36:09;17.73;;;7.75;;
59169;SDS011;52474;52.236;5.114;2024-02-04T06:41:01;24.75;;;9.07;;
59169;SDS011;52474;52.236;5.114;2024-02-04T06:43:27;28.27;;;10.70;;
59169;SDS011;52474;52.236;5.114;2024-02-04T06:45:52;24.90;;;10.77;;
59169;SDS011;52474;52.236;5.114;2024-02-04T06:48:21;30.58;;;12.30;;
59169;SDS011;52474;52.236;5.114;2024-02-04T06:50:47;29.00;;;12.30;;
59169;SDS011;52474;52.236;5.114;2024-02-04T06:53:13;23.02;;;12.13;;
59169;SDS011;52474;52.236;5.114;2024-02-04T06:55:39;30.13;;;13.02;;
59169;SDS011;52474;52.236;5.114;2024-02-04T06:58:05;31.63;;;13.15;;
59169;SDS011;52474;52.236;5.114;2024-02-04T07:00:31;30.80;;;13.38;;
59169;SDS011;52474;52.236;5.114;2024-02-04T07:02:56;31.63;;;13.68;;
59169;SDS011;52474;52.236;5.114;2024-02-04T07:05:22;38.13;;;14.02;;
59169;SDS011;52474;52.236;5.114;2024-02-04T07:07:48;37.38;;;15.18;;
59169;SDS011;52474;52.236;5.114;2024-02-04T07:10:17;37.35;;;14.88;;
59169;SDS011;52474;52.236;5.114;2024-02-04T07:12:44;32.67;;;13.55;;
59169;SDS011;52474;52.236;5.114;2024-02-04T07:15:10;29.23;;;13.75;;
59169;SDS011;52474;52.236;5.114;2024-02-04T07:17:35;37.22;;;13.88;;
59169;SDS011;52474;52.236;5.114;2024-02-04T07:20:01;31.35;;;12.77;;
59169;SDS011;52474;52.236;5.114;2024-02-04T07:22:28;27.02;;;11.93;;
59169;SDS011;52474;52.236;5.114;2024-02-04T07:24:54;27.80;;;10.93;;
59169;SDS011;52474;52.236;5.114;2024-02-04T07:27:20;25.00;;;11.20;;
59169;SDS011;52474;52.236;5.114;2024-02-04T07:29:45;18.25;;;9.52;;
59169;SDS011;52474;52.236;5.114;2024-02-04T07:32:12;18.83;;;7.80;;
59169;SDS011;52474;52.236;5.114;2024-02-04T07:34:40;15.88;;;7.18;;
59169;SDS011;52474;52.236;5.114;2024-02-04T07:37:06;11.50;;;6.15;;
59169;SDS011;52474;52.236;5.114;2024-02-04T07:39:31;11.60;;;5.85;;
59169;SDS011;52474;52.236;5.114;2024-02-04T07:41:57;12.40;;;5.70;;
59169;SDS011;52474;52.236;5.114;2024-02-04T07:44:26;10.65;;;5.57;;
59169;SDS011;52474;52.236;5.114;2024-02-04T07:46:53;13.43;;;5.75;;
59169;SDS011;52474;52.236;5.114;2024-02-04T07:49:18;14.20;;;6.30;;
59169;SDS011;52474;52.236;5.114;2024-02-04T07:51:44;12.13;;;5.78;;
59169;SDS011;52474;52.236;5.114;2024-02-04T07:54:10;11.07;;;5.18;;
59169;SDS011;52474;52.236;5.114;2024-02-04T07:56:35;15.88;;;5.95;;
59169;SDS011;52474;52.236;5.114;2024-02-04T07:59:01;11.35;;;4.97;;
59169;SDS011;52474;52.236;5.114;2024-02-04T08:01:29;10.23;;;4.97;;
59169;SDS011;52474;52.236;5.114;2024-02-04T08:03:54;8.27;;;4.75;;
59169;SDS011;52474;52.236;5.114;2024-02-04T08:06:20;14.15;;;4.28;;
59169;SDS011;52474;52.236;5.114;2024-02-04T08:08:46;8.45;;;3.88;;
59169;SDS011;52474;52.236;5.114;2024-02-04T08:11:19;11.30;;;3.60;;
59169;SDS011;52474;52.236;5.114;2024-02-04T08:13:46;10.15;;;3.20;;
59169;SDS011;52474;52.236;5.114;2024-02-04T08:16:12;13.95;;;3.30;;
59169;SDS011;52474;52.236;5.114;2024-02-04T08:18:38;5.47;;;3.33;;
59169;SDS011;52474;52.236;5.114;2024-02-04T08:21:03;11.05;;;3.97;;
59169;SDS011;52474;52.236;5.114;2024-02-04T08:23:29;9.38;;;3.67;;
59169;SDS011;52474;52.236;5.114;2024-02-04T08:25:55;10.65;;;3.35;;
59169;SDS011;52474;52.236;5.114;2024-02-04T08:28:22;6.68;;;3.10;;
59169;SDS011;52474;52.236;5.114;2024-02-04T08:30:49;8.73;;;3.85;;
59169;SDS011;52474;52.236;5.114;2024-02-04T08:33:14;7.38;;;4.10;;
59169;SDS011;52474;52.236;5.114;2024-02-04T08:35:41;9.60;;;4.43;;
59169;SDS011;52474;52.236;5.114;2024-02-04T08:38:06;12.93;;;4.72;;
59169;SDS011;52474;52.236;5.114;2024-02-04T08:40:32;13.38;;;6.93;;
59169;SDS011;52474;52.236;5.114;2024-02-04T08:42:58;15.05;;;7.55;;
59169;SDS011;52474;52.236;5.114;2024-02-04T08:45:24;22.67;;;10.38;;
59169;SDS011;52474;52.236;5.114;2024-02-04T08:47:49;19.70;;;8.45;;
59169;SDS011;52474;52.236;5.114;2024-02-04T08:50:15;31.55;;;10.20;;
59169;SDS011;52474;52.236;5.114;2024-02-04T08:52:41;25.90;;;9.90;;
59169;SDS011;52474;52.236;5.114;2024-02-04T08:55:06;27.40;;;10.23;;
59169;SDS011;52474;52.236;5.114;2024-02-04T08:57:32;21.63;;;8.23;;
59169;SDS011;52474;52.236;5.114;2024-02-04T08:59:58;21.25;;;7.00;;
59169;SDS011;52474;52.236;5.114;2024-02-04T09:02:23;19.50;;;6.70;;
59169;SDS011;52474;52.236;5.114;2024-02-04T09:04:49;19.55;;;5.75;;
59169;SDS011;52474;52.236;5.114;2024-02-04T09:07:15;11.52;;;4.88;;
59169;SDS011;52474;52.236;5.114;2024-02-04T09:09:41;9.90;;;4.60;;
59169;SDS011;52474;52.236;5.114;2024-02-04T09:12:07;9.18;;;4.65;;
59169;SDS011;52474;52.236;5.114;2024-02-04T09:14:35;10.45;;;4.35;;
59169;SDS011;52474;52.236;5.114;2024-02-04T09:17:04;13.52;;;3.78;;
59169;SDS011;52474;52.236;5.114;2024-02-04T09:19:31;4.32;;;3.22;;
59169;SDS011;52474;52.236;5.114;2024-02-04T09:21:57;8.65;;;3.35;;
59169;SDS011;52474;52.236;5.114;2024-02-04T09:24:23;10.10;;;3.65;;
59169;SDS011;52474;52.236;5.114;2024-02-04T09:26:49;9.95;;;3.30;;
59169;SDS011;52474;52.236;5.114;2024-02-04T09:29:14;6.60;;;3.20;;
59169;SDS011;52474;52.236;5.114;2024-02-04T09:31:40;10.85;;;2.88;;
59169;SDS011;52474;52.236;5.114;2024-02-04T09:34:06;6.28;;;2.80;;
59169;SDS011;52474;52.236;5.114;2024-02-04T09:36:31;9.38;;;2.67;;
59169;SDS011;52474;52.236;5.114;2024-02-04T09:38:57;7.80;;;3.03;;
59169;SDS011;52474;52.236;5.114;2024-02-04T09:41:23;5.78;;;2.63;;
59169;SDS011;52474;52.236;5.114;2024-02-04T09:43:50;10.50;;;2.95;;
59169;SDS011;52474;52.236;5.114;2024-02-04T09:46:16;8.43;;;2.65;;
59169;SDS011;52474;52.236;5.114;2024-02-04T09:48:42;9.63;;;2.88;;
59169;SDS011;52474;52.236;5.114;2024-02-04T09:51:11;6.38;;;2.13;;
59169;SDS011;52474;52.236;5.114;2024-02-04T09:53:38;9.40;;;2.72;;
59169;SDS011;52474;52.236;5.114;2024-02-04T09:56:09;5.88;;;2.22;;
59169;SDS011;52474;52.236;5.114;2024-02-04T09:58:36;5.70;;;2.05;;
59169;SDS011;52474;52.236;5.114;2024-02-04T10:01:02;3.58;;;1.90;;
59169;SDS011;52474;52.236;5.114;2024-02-04T10:03:29;6.88;;;2.10;;
59169;SDS011;52474;52.236;5.114;2024-02-04T10:05:55;4.45;;;2.00;;
59169;SDS011;52474;52.236;5.114;2024-02-04T10:08:21;7.35;;;1.73;;
59169;SDS011;52474;52.236;5.114;2024-02-04T10:10:47;6.90;;;1.83;;
59169;SDS011;52474;52.236;5.114;2024-02-04T10:13:13;4.95;;;1.63;;
59169;SDS011;52474;52.236;5.114;2024-02-04T10:15:39;7.40;;;1.83;;
59169;SDS011;52474;52.236;5.114;2024-02-04T10:18:05;4.07;;;1.58;;
59169;SDS011;52474;52.236;5.114;2024-02-04T10:20:34;7.17;;;1.93;;
59169;SDS011;52474;52.236;5.114;2024-02-04T10:23:00;6.18;;;1.80;;
59169;SDS011;52474;52.236;5.114;2024-02-04T10:25:26;9.15;;;2.50;;
59169;SDS011;52474;52.236;5.114;2024-02-04T10:27:52;6.72;;;1.90;;
59169;SDS011;52474;52.236;5.114;2024-02-04T10:30:19;6.40;;;1.70;;
59169;SDS011;52474;52.236;5.114;2024-02-04T10:32:52;4.55;;;1.50;;
59169;SDS011;52474;52.236;5.114;2024-02-04T10:35:20;4.97;;;1.58;;
59169;SDS011;52474;52.236;5.114;2024-02-04T10:40:16;3.50;;;1.58;;
59169;SDS011;52474;52.236;5.114;2024-02-04T10:42:43;7.13;;;1.75;;
59169;SDS011;52474;52.236;5.114;2024-02-04T10:45:09;3.85;;;1.38;;
59169;SDS011;52474;52.236;5.114;2024-02-04T10:47:37;6.43;;;1.80;;
59169;SDS011;52474;52.236;5.114;2024-02-04T10:50:03;4.78;;;1.45;;
59169;SDS011;52474;52.236;5.114;2024-02-04T10:52:39;4.32;;;1.70;;
59169;SDS011;52474;52.236;5.114;2024-02-04T10:55:07;4.50;;;1.60;;
59169;SDS011;52474;52.236;5.114;2024-02-04T10:57:37;6.53;;;1.63;;
59169;SDS011;52474;52.236;5.114;2024-02-04T11:00:05;1.88;;;1.30;;
59169;SDS011;52474;52.236;5.114;2024-02-04T11:02:34;4.18;;;1.42;;
59169;SDS011;52474;52.236;5.114;2024-02-04T11:05:04;6.70;;;1.98;;
59169;SDS011;52474;52.236;5.114;2024-02-04T11:07:33;7.50;;;1.75;;
59169;SDS011;52474;52.236;5.114;2024-02-04T11:10:00;4.47;;;1.70;;
59169;SDS011;52474;52.236;5.114;2024-02-04T11:12:27;7.05;;;1.98;;
59169;SDS011;52474;52.236;5.114;2024-02-04T11:14:55;5.72;;;2.05;;
59169;SDS011;52474;52.236;5.114;2024-02-04T11:17:46;7.05;;;2.55;;
59169;SDS011;52474;52.236;5.114;2024-02-04T11:23:09;11.45;;;3.33;;
59169;SDS011;52474;52.236;5.114;2024-02-04T11:25:52;13.05;;;4.32;;
59169;SDS011;52474;52.236;5.114;2024-02-04T11:30:48;12.70;;;4.03;;
59169;SDS011;52474;52.236;5.114;2024-02-04T11:33:22;16.63;;;4.57;;
59169;SDS011;52474;52.236;5.114;2024-02-04T11:35:58;18.27;;;4.40;;
59169;SDS011;52474;52.236;5.114;2024-02-04T11:41:02;16.00;;;4.50;;
59169;SDS011;52474;52.236;5.114;2024-02-04T11:43:28;18.45;;;4.50;;
59169;SDS011;52474;52.236;5.114;2024-02-04T11:45:54;12.00;;;3.90;;
59169;SDS011;52474;52.236;5.114;2024-02-04T11:48:28;16.15;;;3.95;;
59169;SDS011;52474;52.236;5.114;2024-02-04T11:50:55;14.38;;;3.42;;
59169;SDS011;52474;52.236;5.114;2024-02-04T11:53:23;15.80;;;4.13;;
59169;SDS011;52474;52.236;5.114;2024-02-04T11:55:51;16.35;;;4.68;;
59169;SDS011;52474;52.236;5.114;2024-02-04T11:58:18;12.10;;;3.90;;
59169;SDS011;52474;52.236;5.114;2024-02-04T12:00:45;14.27;;;3.60;;
59169;SDS011;52474;52.236;5.114;2024-02-04T12:03:10;14.40;;;3.75;;
59169;SDS011;52474;52.236;5.114;2024-02-04T12:05:37;15.60;;;3.95;;
59169;SDS011;52474;52.236;5.114;2024-02-04T12:08:04;14.93;;;3.40;;
59169;SDS011;52474;52.236;5.114;2024-02-04T12:10:32;18.52;;;5.35;;
59169;SDS011;52474;52.236;5.114;2024-02-04T12:12:59;16.27;;;3.35;;
59169;SDS011;52474;52.236;5.114;2024-02-04T12:15:27;12.07;;;2.80;;
59169;SDS011;52474;52.236;5.114;2024-02-04T12:17:54;15.95;;;4.43;;
59169;SDS011;52474;52.236;5.114;2024-02-04T12:20:20;16.60;;;3.22;;
59169;SDS011;52474;52.236;5.114;2024-02-04T12:22:46;15.40;;;2.92;;
59169;SDS011;52474;52.236;5.114;2024-02-04T12:25:14;13.85;;;2.70;;
59169;SDS011;52474;52.236;5.114;2024-02-04T12:27:40;12.25;;;3.22;;
59169;SDS011;52474;52.236;5.114;2024-02-04T12:30:06;11.85;;;2.90;;
59169;SDS011;52474;52.236;5.114;2024-02-04T12:32:32;13.43;;;2.80;;
59169;SDS011;52474;52.236;5.114;2024-02-04T12:34:59;12.63;;;3.67;;
59169;SDS011;52474;52.236;5.114;2024-02-04T12:37:26;11.50;;;2.72;;
59169;SDS011;52474;52.236;5.114;2024-02-04T12:39:52;14.38;;;3.03;;
59169;SDS011;52474;52.236;5.114;2024-02-04T12:42:17;9.68;;;2.60;;
59169;SDS011;52474;52.236;5.114;2024-02-04T12:44:44;16.90;;;2.88;;
59169;SDS011;52474;52.236;5.114;2024-02-04T12:47:10;11.15;;;2.92;;
59169;SDS011;52474;52.236;5.114;2024-02-04T12:49:36;11.50;;;3.15;;
59169;SDS011;52474;52.236;5.114;2024-02-04T12:52:05;15.35;;;2.78;;
59169;SDS011;52474;52.236;5.114;2024-02-04T12:54:44;12.93;;;2.50;;
59169;SDS011;52474;52.236;5.114;2024-02-04T12:57:21;15.30;;;3.20;;
59169;SDS011;52474;52.236;5.114;2024-02-04T12:59:48;7.13;;;2.20;;
59169;SDS011;52474;52.236;5.114;2024-02-04T13:02:14;14.02;;;2.80;;
59169;SDS011;52474;52.236;5.114;2024-02-04T13:04:41;12.68;;;2.60;;
59169;SDS011;52474;52.236;5.114;2024-02-04T13:07:10;9.30;;;2.47;;
59169;SDS011;52474;52.236;5.114;2024-02-04T13:09:39;11.63;;;2.45;;
59169;SDS011;52474;52.236;5.114;2024-02-04T13:12:06;7.40;;;2.30;;
59169;SDS011;52474;52.236;5.114;2024-02-04T13:14:37;8.20;;;2.78;;
59169;SDS011;52474;52.236;5.114;2024-02-04T13:17:03;8.02;;;2.65;;
59169;SDS011;52474;52.236;5.114;2024-02-04T13:19:36;12.20;;;2.95;;
59169;SDS011;52474;52.236;5.114;2024-02-04T13:22:06;12.50;;;3.20;;
59169;SDS011;52474;52.236;5.114;2024-02-04T13:24:35;9.32;;;2.63;;
59169;SDS011;52474;52.236;5.114;2024-02-04T13:27:01;7.80;;;2.55;;
59169;SDS011;52474;52.236;5.114;2024-02-04T13:29:28;9.82;;;2.80;;
59169;SDS011;52474;52.236;5.114;2024-02-04T13:31:54;11.02;;;2.55;;
59169;SDS011;52474;52.236;5.114;2024-02-04T13:34:21;5.05;;;1.92;;
59169;SDS011;52474;52.236;5.114;2024-02-04T13:36:47;6.60;;;2.40;;
59169;SDS011;52474;52.236;5.114;2024-02-04T13:39:12;10.45;;;2.20;;
59169;SDS011;52474;52.236;5.114;2024-02-04T13:41:41;11.45;;;2.92;;
59169;SDS011;52474;52.236;5.114;2024-02-04T13:44:07;8.50;;;2.30;;
59169;SDS011;52474;52.236;5.114;2024-02-04T13:46:33;7.10;;;2.17;;
59169;SDS011;52474;52.236;5.114;2024-02-04T13:48:59;8.10;;;2.70;;
59169;SDS011;52474;52.236;5.114;2024-02-04T13:51:25;11.65;;;2.38;;
59169;SDS011;52474;52.236;5.114;2024-02-04T13:53:50;10.43;;;2.38;;
59169;SDS011;52474;52.236;5.114;2024-02-04T13:56:16;12.60;;;2.80;;
59169;SDS011;52474;52.236;5.114;2024-02-04T13:58:44;11.90;;;2.60;;
59169;SDS011;52474;52.236;5.114;2024-02-04T14:01:10;9.95;;;2.90;;
59169;SDS011;52474;52.236;5.114;2024-02-04T14:03:36;9.32;;;2.53;;
59169;SDS011;52474;52.236;5.114;2024-02-04T14:06:02;6.72;;;2.53;;
59169;SDS011;52474;52.236;5.114;2024-02-04T14:08:29;12.65;;;2.88;;
59169;SDS011;52474;52.236;5.114;2024-02-04T14:10:55;8.05;;;2.67;;
59169;SDS011;52474;52.236;5.114;2024-02-04T14:13:21;7.90;;;2.30;;
59169;SDS011;52474;52.236;5.114;2024-02-04T14:15:47;8.05;;;2.70;;
59169;SDS011;52474;52.236;5.114;2024-02-04T14:18:12;10.25;;;2.63;;
59169;SDS011;52474;52.236;5.114;2024-02-04T14:20:38;9.80;;;2.95;;
59169;SDS011;52474;52.236;5.114;2024-02-04T14:23:04;6.72;;;2.60;;
59169;SDS011;52474;52.236;5.114;2024-02-04T14:25:29;8.00;;;2.95;;
59169;SDS011;52474;52.236;5.114;2024-02-04T14:27:55;11.77;;;2.70;;
59169;SDS011;52474;52.236;5.114;2024-02-04T14:30:21;8.43;;;2.30;;
59169;SDS011;52474;52.236;5.114;2024-02-04T14:32:46;13.68;;;2.72;;
59169;SDS011;52474;52.236;5.114;2024-02-04T14:35:12;9.13;;;2.42;;
59169;SDS011;52474;52.236;5.114;2024-02-04T14:37:38;7.68;;;2.50;;
59169;SDS011;52474;52.236;5.114;2024-02-04T14:40:08;6.53;;;2.25;;
59169;SDS011;52474;52.236;5.114;2024-02-04T14:42:34;8.27;;;1.92;;
59169;SDS011;52474;52.236;5.114;2024-02-04T14:44:59;9.48;;;2.95;;
59169;SDS011;52474;52.236;5.114;2024-02-04T14:47:28;8.93;;;2.25;;
59169;SDS011;52474;52.236;5.114;2024-02-04T14:49:54;10.10;;;2.20;;
59169;SDS011;52474;52.236;5.114;2024-02-04T14:52:20;8.85;;;2.72;;